createdAt,value
2018-12-02T00:02:30.145Z,4.34
2018-12-02T00:05:00.151Z,4.37
2018-12-02T00:07:32.936Z,4.40
2018-12-02T00:10:03.568Z,4.42
2018-12-02T00:12:33.945Z,4.45
2018-12-02T00:15:04.524Z,4.45
2018-12-02T00:17:34.614Z,4.48
2018-12-02T00:20:06.841Z,4.49
2018-12-02T00:22:36.989Z,4.50
2018-12-02T00:25:08.534Z,4.52
2018-12-02T00:27:38.671Z,4.53
2018-12-02T00:30:13.845Z,4.54
2018-12-02T00:32:43.994Z,4.55
2018-12-02T00:35:15.671Z,4.55
2018-12-02T00:37:46.792Z,4.58
2018-12-02T00:40:17.977Z,4.57
2018-12-02T00:42:52.898Z,4.55
2018-12-02T00:45:25.121Z,4.55
2018-12-02T00:47:55.136Z,4.56
2018-12-02T00:50:25.172Z,4.59
2018-12-02T00:52:56.551Z,4.62
2018-12-02T00:55:28.867Z,4.62
2018-12-02T00:57:58.968Z,4.63
2018-12-02T01:00:29.032Z,4.64
2018-12-02T01:02:59.152Z,4.65
2018-12-02T01:05:29.164Z,4.62
2018-12-02T01:07:59.225Z,4.60
2018-12-02T01:10:29.252Z,4.59
2018-12-02T01:12:59.661Z,4.61
2018-12-02T01:15:31.298Z,4.64
2018-12-02T01:18:01.388Z,4.68
2018-12-02T01:20:31.414Z,4.70
2018-12-02T01:23:01.437Z,4.71
2018-12-02T01:25:31.456Z,4.74
2018-12-02T01:28:01.540Z,4.74
2018-12-02T01:30:31.612Z,4.75
2018-12-02T01:33:01.602Z,4.76
2018-12-02T01:35:31.621Z,4.75
2018-12-02T01:38:01.713Z,4.74
2018-12-02T01:40:31.736Z,4.75
2018-12-02T01:43:01.805Z,4.75
2018-12-02T01:45:32.158Z,4.77
2018-12-02T01:48:02.289Z,4.81
2018-12-02T01:50:32.314Z,4.82
2018-12-02T01:53:02.403Z,4.85
2018-12-02T01:55:32.449Z,4.88
2018-12-02T01:58:02.550Z,4.90
2018-12-02T02:00:32.605Z,4.92
2018-12-02T02:03:02.672Z,4.95
2018-12-02T02:05:32.694Z,5.00
2018-12-02T02:08:02.702Z,5.03
2018-12-02T02:10:33.117Z,5.06
2018-12-02T02:13:03.115Z,5.08
2018-12-02T02:15:33.093Z,5.14
2018-12-02T02:18:03.161Z,5.18
2018-12-02T02:20:33.210Z,5.19
2018-12-02T02:23:03.216Z,5.24
2018-12-02T02:25:33.235Z,5.30
2018-12-02T02:28:03.333Z,5.34
2018-12-02T02:30:33.374Z,5.36
2018-12-02T02:33:03.422Z,5.38
2018-12-02T02:35:33.405Z,5.37
2018-12-02T02:38:03.410Z,5.38
2018-12-02T02:40:33.441Z,5.38
2018-12-02T02:43:03.450Z,5.39
2018-12-02T02:45:33.491Z,5.41
2018-12-02T02:48:03.510Z,5.41
2018-12-02T02:50:33.503Z,5.42
2018-12-02T02:53:03.554Z,5.43
2018-12-02T02:55:33.547Z,5.46
2018-12-02T02:58:03.560Z,5.49
2018-12-02T03:00:33.553Z,5.51
2018-12-02T03:03:03.546Z,5.55
2018-12-02T03:05:33.481Z,5.60
2018-12-02T03:08:03.505Z,5.62
2018-12-02T03:10:33.525Z,5.67
2018-12-02T03:13:03.558Z,5.69
2018-12-02T03:15:33.571Z,5.71
2018-12-02T03:18:03.586Z,5.74
2018-12-02T03:20:33.590Z,5.75
2018-12-02T03:23:03.632Z,5.81
2018-12-02T03:25:33.808Z,5.83
2018-12-02T03:28:03.819Z,5.87
2018-12-02T03:30:33.816Z,5.86
2018-12-02T03:33:03.938Z,5.91
2018-12-02T03:35:33.988Z,5.93
2018-12-02T03:38:04.025Z,5.94
2018-12-02T03:40:33.985Z,5.94
2018-12-02T03:43:04.090Z,5.95
2018-12-02T03:45:34.151Z,5.95
2018-12-02T03:48:04.272Z,5.98
2018-12-02T03:50:34.280Z,5.98
2018-12-02T03:53:04.375Z,5.98
2018-12-02T03:55:34.372Z,5.98
2018-12-02T03:58:04.382Z,5.96
2018-12-02T04:00:34.550Z,5.94
2018-12-02T04:03:04.982Z,5.89
2018-12-02T04:05:34.999Z,5.86
2018-12-02T04:08:05.002Z,5.87
2018-12-02T04:10:34.981Z,5.89
2018-12-02T04:13:05.035Z,5.89
2018-12-02T04:15:35.049Z,5.91
2018-12-02T04:18:05.079Z,5.88
2018-12-02T04:20:35.078Z,5.88
2018-12-02T04:23:08.605Z,5.87
2018-12-02T04:25:38.593Z,5.93
2018-12-02T04:28:09.286Z,5.97
2018-12-02T04:30:39.940Z,5.95
2018-12-02T04:33:09.929Z,5.95
2018-12-02T04:35:40.165Z,5.90
2018-12-02T04:38:11.520Z,5.89
2018-12-02T04:40:41.533Z,5.88
2018-12-02T04:43:12.061Z,5.87
2018-12-02T04:45:42.043Z,5.88
2018-12-02T04:48:12.159Z,5.90
2018-12-02T04:50:42.176Z,5.91
2018-12-02T04:53:12.272Z,5.90
2018-12-02T04:55:42.273Z,5.91
2018-12-02T04:58:12.302Z,5.91
2018-12-02T05:00:42.318Z,5.94
2018-12-02T05:03:12.333Z,5.96
2018-12-02T05:05:42.961Z,5.96
2018-12-02T05:08:12.982Z,5.94
2018-12-02T05:10:42.999Z,5.97
2018-12-02T05:13:13.035Z,5.98
2018-12-02T05:15:42.961Z,5.97
2018-12-02T05:18:12.955Z,5.95
2018-12-02T05:20:42.907Z,5.89
2018-12-02T05:23:12.983Z,5.85
2018-12-02T05:25:42.976Z,5.83
2018-12-02T05:28:13.079Z,5.82
2018-12-02T05:30:43.011Z,5.85
2018-12-02T05:33:13.035Z,5.86
2018-12-02T05:35:42.993Z,5.85
2018-12-02T05:38:13.070Z,5.87
2018-12-02T05:40:43.058Z,5.90
2018-12-02T05:43:13.100Z,5.93
2018-12-02T05:45:43.213Z,5.97
2018-12-02T05:48:13.309Z,6.01
2018-12-02T05:50:43.322Z,6.04
2018-12-02T05:53:13.400Z,6.12
2018-12-02T05:55:43.450Z,6.17
2018-12-02T05:58:13.478Z,6.22
2018-12-02T06:00:43.478Z,6.26
2018-12-02T06:03:13.501Z,6.29
2018-12-02T06:05:43.522Z,6.33
2018-12-02T06:08:13.515Z,6.35
2018-12-02T06:10:43.962Z,6.35
2018-12-02T06:13:14.000Z,6.40
2018-12-02T06:15:44.013Z,6.40
2018-12-02T06:18:14.005Z,6.43
2018-12-02T06:20:44.578Z,6.44
2018-12-02T06:23:14.598Z,6.41
2018-12-02T06:25:46.573Z,6.41
2018-12-02T06:28:15.173Z,6.41
2018-12-02T06:30:46.024Z,6.41
2018-12-02T06:33:16.423Z,6.41
2018-12-02T06:35:46.808Z,6.44
2018-12-02T06:38:16.945Z,6.43
2018-12-02T06:40:46.922Z,6.39
2018-12-02T06:43:16.914Z,6.37
2018-12-02T06:45:47.500Z,6.31
2018-12-02T06:48:17.937Z,6.17
2018-12-02T06:50:47.906Z,6.09
2018-12-02T06:53:18.010Z,6.03
2018-12-02T06:55:54.857Z,5.99
2018-12-02T07:00:41.450Z,5.98
2018-12-02T07:03:21.904Z,5.95
2018-12-02T07:05:53.360Z,5.92
2018-12-02T07:08:23.601Z,5.90
2018-12-02T07:10:54.322Z,5.86
2018-12-02T07:13:25.817Z,5.86
2018-12-02T07:15:55.825Z,5.82
2018-12-02T07:18:29.397Z,5.79
2018-12-02T07:21:06.168Z,5.75
2018-12-02T07:23:39.952Z,5.73
2018-12-02T07:26:13.253Z,5.70
2018-12-02T07:28:43.414Z,5.68
2018-12-02T07:31:13.449Z,5.68
2018-12-02T07:33:43.414Z,5.66
2018-12-02T07:36:13.443Z,5.65
2018-12-02T07:38:52.747Z,5.63
2018-12-02T07:41:22.802Z,5.63
2018-12-02T07:43:53.415Z,5.63
2018-12-02T07:46:23.672Z,5.64
2018-12-02T07:48:53.891Z,5.68
2018-12-02T07:51:24.127Z,5.69
2018-12-02T07:53:54.530Z,5.70
2018-12-02T07:56:24.955Z,5.69
2018-12-02T07:58:55.096Z,5.68
2018-12-02T08:01:25.163Z,5.69
2018-12-02T08:03:55.210Z,5.71
2018-12-02T08:06:26.008Z,5.71
2018-12-02T08:08:56.149Z,5.72
2018-12-02T08:11:26.353Z,5.75
2018-12-02T08:13:56.425Z,5.77
2018-12-02T08:16:26.485Z,5.76
2018-12-02T08:18:56.817Z,5.78
2018-12-02T08:21:26.829Z,5.78
2018-12-02T08:23:57.231Z,5.75
2018-12-02T08:26:29.644Z,5.72
2018-12-02T08:28:59.650Z,5.71
2018-12-02T08:31:29.612Z,5.70
2018-12-02T08:33:59.582Z,5.71
2018-12-02T08:36:29.856Z,5.74
2018-12-02T08:39:00.288Z,5.75
2018-12-02T08:41:30.730Z,5.76
2018-12-02T08:44:04.825Z,5.78
2018-12-02T08:46:36.026Z,5.78
2018-12-02T08:49:06.320Z,5.80
2018-12-02T08:51:36.906Z,5.80
2018-12-02T08:54:07.035Z,5.82
2018-12-02T08:56:37.055Z,5.84
2018-12-02T08:59:07.340Z,5.88
2018-12-02T09:01:37.359Z,5.92
2018-12-02T09:04:07.630Z,5.93
2018-12-02T09:06:38.390Z,5.95
2018-12-02T09:09:10.301Z,5.96
2018-12-02T09:11:42.627Z,6.01
2018-12-02T09:14:12.712Z,6.02
2018-12-02T09:16:42.829Z,6.05
2018-12-02T09:19:13.872Z,6.07
2018-12-02T09:21:45.339Z,6.06
2018-12-02T09:24:15.444Z,6.06
2018-12-02T09:26:45.476Z,6.12
2018-12-02T09:29:17.951Z,6.10
2018-12-02T09:31:47.980Z,6.12
2018-12-02T09:34:18.143Z,6.21
2018-12-02T09:36:48.198Z,6.24
2018-12-02T09:39:18.566Z,6.21
2018-12-02T09:41:48.459Z,6.21
2018-12-02T09:44:18.528Z,6.28
2018-12-02T09:46:49.000Z,6.27
2018-12-02T09:49:19.110Z,6.26
2018-12-02T09:51:49.158Z,6.30
2018-12-02T09:54:23.332Z,6.35
2018-12-02T09:56:55.389Z,6.37
2018-12-02T09:59:25.517Z,6.44
2018-12-02T10:01:55.559Z,6.46
2018-12-02T10:04:25.692Z,6.50
2018-12-02T10:06:55.762Z,6.58
2018-12-02T10:09:25.830Z,6.54
2018-12-02T10:11:55.834Z,6.62
2018-12-02T10:14:25.928Z,6.67
2018-12-02T10:16:56.130Z,6.62
2018-12-02T10:19:26.519Z,6.69
2018-12-02T10:21:56.664Z,6.76
2018-12-02T10:24:26.708Z,6.75
2018-12-02T10:26:56.991Z,6.88
2018-12-02T10:29:27.164Z,6.97
2018-12-02T10:31:57.213Z,7.00
2018-12-02T10:34:27.475Z,7.06
2018-12-02T10:36:58.052Z,7.17
2018-12-02T10:39:28.657Z,7.21
2018-12-02T10:41:59.521Z,7.22
2018-12-02T10:44:29.575Z,7.28
2018-12-02T10:46:59.640Z,7.33
2018-12-02T10:49:29.818Z,7.31
2018-12-02T10:52:03.104Z,7.50
2018-12-02T10:54:45.419Z,7.53
2018-12-02T10:57:20.311Z,7.59
2018-12-02T10:59:50.691Z,7.61
2018-12-02T11:02:20.961Z,7.73
2018-12-02T11:04:51.316Z,7.80
2018-12-02T11:07:21.312Z,7.84
2018-12-02T11:09:51.599Z,7.94
2018-12-02T11:12:21.677Z,7.98
2018-12-02T11:14:51.971Z,8.00
2018-12-02T11:17:22.253Z,8.03
2018-12-02T11:19:52.386Z,8.03
2018-12-02T11:22:22.431Z,8.06
2018-12-02T11:24:52.458Z,8.05
2018-12-02T11:27:22.457Z,8.07
2018-12-02T11:29:52.549Z,8.10
2018-12-02T11:32:22.539Z,8.15
2018-12-02T11:34:52.683Z,8.15
2018-12-02T11:37:22.756Z,8.21
2018-12-02T11:39:52.797Z,8.23
2018-12-02T11:42:22.769Z,8.31
2018-12-02T11:44:52.791Z,8.35
2018-12-02T11:47:22.794Z,8.39
2018-12-02T11:49:52.905Z,8.36
2018-12-02T11:52:23.218Z,8.39
2018-12-02T11:54:53.643Z,8.40
2018-12-02T11:57:26.568Z,8.38
2018-12-02T11:59:53.680Z,8.39
2018-12-02T12:02:23.685Z,8.39
2018-12-02T12:04:53.698Z,8.41
2018-12-02T12:07:23.661Z,8.39
2018-12-02T12:09:53.704Z,8.34
2018-12-02T12:12:23.706Z,8.29
2018-12-02T12:14:53.857Z,8.26
2018-12-02T12:17:23.979Z,8.24
2018-12-02T12:19:54.017Z,8.25
2018-12-02T12:22:24.017Z,8.23
2018-12-02T12:24:54.054Z,8.20
2018-12-02T12:27:24.045Z,8.20
2018-12-02T12:29:54.093Z,8.19
2018-12-02T12:32:24.087Z,8.22
2018-12-02T12:34:54.136Z,8.20
2018-12-02T12:37:24.245Z,8.21
2018-12-02T12:39:54.347Z,8.20
2018-12-02T12:42:24.399Z,8.23
2018-12-02T12:44:54.455Z,8.21
2018-12-02T12:47:24.538Z,8.22
2018-12-02T12:49:54.559Z,8.20
2018-12-02T12:52:24.995Z,8.19
2018-12-02T12:54:55.107Z,8.17
2018-12-02T12:57:25.535Z,8.20
2018-12-02T12:59:55.708Z,8.20
2018-12-02T13:02:25.998Z,8.21
2018-12-02T13:04:56.375Z,8.25
2018-12-02T13:07:26.483Z,8.24
2018-12-02T13:09:56.661Z,8.26
2018-12-02T13:12:26.714Z,8.28
2018-12-02T13:14:59.082Z,8.34
2018-12-02T13:17:30.187Z,8.34
2018-12-02T13:20:00.511Z,8.38
2018-12-02T13:22:30.925Z,8.46
2018-12-02T13:25:01.033Z,8.55
2018-12-02T13:27:31.276Z,8.59
2018-12-02T13:30:06.675Z,8.70
2018-12-02T13:32:36.774Z,8.79
2018-12-02T13:35:07.252Z,8.84
2018-12-02T13:37:38.160Z,8.88
2018-12-02T13:40:13.343Z,8.90
2018-12-02T13:42:44.597Z,8.96
2018-12-02T13:45:17.948Z,8.98
2018-12-02T13:47:49.200Z,9.02
2018-12-02T13:50:20.300Z,9.06
2018-12-02T13:52:52.068Z,9.06
2018-12-02T13:55:25.705Z,9.11
2018-12-02T13:57:55.770Z,9.10
2018-12-02T14:00:27.340Z,9.14
2018-12-02T14:03:00.365Z,9.15
2018-12-02T14:05:30.406Z,9.19
2018-12-02T14:08:00.461Z,9.23
2018-12-02T14:10:30.660Z,9.26
2018-12-02T14:13:05.670Z,9.29
2018-12-02T14:15:47.812Z,9.32
2018-12-02T14:18:29.604Z,9.38
2018-12-02T14:21:00.492Z,9.38
2018-12-02T14:23:30.866Z,9.46
2018-12-02T14:26:03.630Z,9.53
2018-12-02T14:28:41.110Z,9.55
2018-12-02T14:31:11.202Z,9.61
2018-12-02T14:33:41.234Z,9.65
2018-12-02T14:36:11.375Z,9.72
2018-12-02T14:38:41.416Z,9.75
2018-12-02T14:41:11.586Z,9.78
2018-12-02T14:43:41.581Z,9.80
2018-12-02T14:46:11.644Z,9.85
2018-12-02T14:48:41.704Z,9.88
2018-12-02T14:51:11.792Z,9.92
2018-12-02T14:53:41.875Z,9.93
2018-12-02T14:58:51.691Z,9.95
2018-12-02T15:01:22.128Z,9.97
2018-12-02T15:03:52.798Z,9.99
2018-12-02T15:06:26.068Z,9.98
2018-12-02T15:08:56.554Z,10.01
2018-12-02T15:11:27.078Z,10.02
2018-12-02T15:13:57.731Z,10.01
2018-12-02T15:16:28.236Z,10.03
2018-12-02T15:18:58.806Z,10.02
2018-12-02T15:21:29.205Z,10.05
2018-12-02T15:23:59.550Z,10.08
2018-12-02T15:26:30.066Z,10.01
2018-12-02T15:29:00.341Z,10.08
2018-12-02T15:31:30.603Z,10.09
2018-12-02T15:34:00.815Z,10.10
2018-12-02T15:36:31.420Z,10.10
2018-12-02T15:39:01.780Z,10.09
2018-12-02T15:41:32.302Z,10.08
2018-12-02T15:44:02.704Z,10.05
2018-12-02T15:46:32.962Z,10.04
2018-12-02T15:49:03.373Z,10.04
2018-12-02T15:51:33.820Z,10.03
2018-12-02T15:54:04.179Z,10.03
2018-12-02T15:56:34.672Z,10.03
2018-12-02T15:59:08.989Z,10.02
2018-12-02T16:01:39.768Z,9.99
2018-12-02T16:04:10.598Z,10.00
2018-12-02T16:06:41.207Z,9.97
2018-12-02T16:09:11.989Z,9.98
2018-12-02T16:11:42.442Z,9.95
2018-12-02T16:14:13.088Z,9.93
2018-12-02T16:16:43.538Z,9.93
2018-12-02T16:19:14.231Z,9.93
2018-12-02T16:21:44.650Z,9.92
2018-12-02T16:24:15.138Z,9.91
2018-12-02T16:26:45.520Z,9.87
2018-12-02T16:29:15.899Z,9.88
2018-12-02T16:31:46.127Z,9.92
2018-12-02T16:34:16.407Z,9.84
2018-12-02T16:36:46.820Z,9.86
2018-12-02T16:39:17.288Z,9.86
2018-12-02T16:41:47.704Z,9.92
2018-12-02T16:44:18.114Z,9.94
2018-12-02T16:46:48.397Z,9.95
2018-12-02T16:49:18.660Z,9.97
2018-12-02T16:51:49.409Z,9.99
2018-12-02T16:54:22.688Z,10.02
2018-12-02T16:56:54.034Z,10.03
2018-12-02T16:59:29.629Z,10.04
2018-12-02T17:02:05.190Z,10.07
2018-12-02T17:04:32.023Z,10.07
2018-12-02T17:07:02.466Z,10.08
2018-12-02T17:09:32.875Z,10.11
2018-12-02T17:12:03.322Z,10.12
2018-12-02T17:14:38.548Z,10.14
2018-12-02T17:17:04.036Z,10.18
2018-12-02T17:19:34.315Z,10.19
2018-12-02T17:22:04.826Z,10.23
2018-12-02T17:24:35.200Z,10.28
2018-12-02T17:27:05.586Z,10.36
2018-12-02T17:29:41.334Z,10.42
2018-12-02T17:32:11.246Z,10.54
2018-12-02T17:34:43.184Z,10.59
2018-12-02T17:37:13.536Z,10.62
2018-12-02T17:39:50.438Z,10.64
2018-12-02T17:42:20.736Z,10.67
2018-12-02T17:44:51.116Z,10.65
2018-12-02T17:47:21.327Z,10.66
2018-12-02T17:49:51.778Z,10.68
2018-12-02T17:52:22.031Z,10.67
2018-12-02T17:54:52.523Z,10.68
2018-12-02T17:57:22.780Z,10.69
2018-12-02T17:59:53.052Z,10.69
2018-12-02T18:02:23.443Z,10.70
2018-12-02T18:04:53.766Z,10.69
2018-12-02T18:07:24.014Z,10.69
2018-12-02T18:09:54.317Z,10.74
2018-12-02T18:12:24.590Z,10.73
2018-12-02T18:14:54.927Z,10.76
2018-12-02T18:17:25.229Z,10.68
2018-12-02T18:19:55.523Z,10.66
2018-12-02T18:22:25.838Z,10.68
2018-12-02T18:24:56.133Z,10.71
2018-12-02T18:27:39.889Z,10.74
2018-12-02T18:30:31.629Z,10.75
2018-12-02T18:33:13.380Z,10.75
2018-12-02T18:36:10.710Z,10.80
2018-12-02T18:38:42.855Z,10.81
2018-12-02T18:41:21.287Z,10.82
2018-12-02T18:43:51.650Z,10.82
2018-12-02T18:46:22.227Z,10.84
2018-12-02T18:48:52.629Z,10.82
2018-12-02T18:51:22.977Z,10.83
2018-12-02T18:53:53.249Z,10.84
2018-12-02T18:56:23.845Z,10.78
2018-12-02T18:58:54.167Z,10.77
2018-12-02T19:01:24.589Z,10.80
2018-12-02T19:03:55.026Z,10.77
2018-12-02T19:06:28.300Z,10.78
2018-12-02T19:08:55.868Z,10.77
2018-12-02T19:11:26.187Z,10.76
2018-12-02T19:13:56.488Z,10.74
2018-12-02T19:16:26.940Z,10.74
2018-12-02T19:18:58.649Z,10.75
2018-12-02T19:21:31.701Z,10.73
2018-12-02T19:24:03.106Z,10.75
2018-12-02T19:26:36.318Z,10.75
2018-12-02T19:29:09.367Z,10.75
2018-12-02T19:31:40.365Z,10.75
2018-12-02T19:34:10.658Z,10.76
2018-12-02T19:36:50.506Z,10.76
2018-12-02T19:39:22.613Z,10.74
2018-12-02T19:41:55.119Z,10.74
2018-12-02T19:44:26.547Z,10.72
2018-12-02T19:46:58.311Z,10.69
2018-12-02T19:49:29.715Z,10.64
2018-12-02T19:52:00.717Z,10.62
2018-12-02T19:54:32.586Z,10.57
2018-12-02T19:57:04.062Z,10.52
2018-12-02T19:59:42.979Z,10.51
2018-12-02T20:02:14.635Z,10.48
2018-12-02T20:04:44.892Z,10.48
2018-12-02T20:07:15.231Z,10.46
2018-12-02T20:09:48.882Z,10.48
2018-12-02T20:12:19.217Z,10.47
2018-12-02T20:14:49.538Z,10.45
2018-12-02T20:17:21.830Z,10.41
2018-12-02T20:19:57.504Z,10.33
2018-12-02T20:22:27.715Z,10.31
2018-12-02T20:24:58.127Z,10.27
2018-12-02T20:27:28.502Z,10.23
2018-12-02T20:29:58.796Z,10.21
2018-12-02T20:32:29.166Z,10.18
2018-12-02T20:34:59.528Z,10.14
2018-12-02T20:37:30.025Z,10.09
2018-12-02T20:40:00.434Z,10.09
2018-12-02T20:42:30.869Z,10.07
2018-12-02T20:45:01.314Z,10.08
2018-12-02T20:47:31.725Z,10.09
2018-12-02T20:50:02.035Z,10.09
2018-12-02T20:52:32.446Z,10.09
2018-12-02T20:55:02.770Z,10.08
2018-12-02T20:57:33.153Z,10.10
2018-12-02T21:00:03.504Z,10.13
2018-12-02T21:02:33.808Z,10.13
2018-12-02T21:05:04.165Z,10.12
2018-12-02T21:07:34.636Z,10.10
2018-12-02T21:10:06.670Z,10.09
2018-12-02T21:12:37.038Z,10.09
2018-12-02T21:15:12.808Z,10.07
2018-12-02T21:17:43.194Z,10.06
2018-12-02T21:20:14.073Z,10.04
2018-12-02T21:22:44.522Z,10.04
2018-12-02T21:25:20.245Z,10.03
2018-12-02T21:27:49.509Z,10.02
2018-12-02T21:30:22.406Z,10.03
2018-12-02T21:32:52.822Z,10.03
2018-12-02T21:35:23.241Z,10.01
2018-12-02T21:37:55.202Z,9.99
2018-12-02T21:40:25.479Z,10.00
2018-12-02T21:42:55.966Z,9.98
2018-12-02T21:45:26.266Z,9.96
2018-12-02T21:47:56.983Z,9.95
2018-12-02T21:50:32.572Z,9.95
2018-12-02T21:53:03.224Z,9.99
2018-12-02T21:55:33.543Z,9.98
2018-12-02T21:58:03.954Z,9.94
2018-12-02T22:00:39.465Z,9.89
2018-12-02T22:03:09.783Z,9.88
2018-12-02T22:05:40.109Z,9.89
2018-12-02T22:08:10.459Z,9.88
2018-12-02T22:10:40.909Z,9.88
2018-12-02T22:13:11.248Z,9.87
2018-12-02T22:15:41.593Z,9.86
2018-12-02T22:18:11.923Z,9.88
2018-12-02T22:20:42.251Z,9.90
2018-12-02T22:23:12.514Z,9.89
2018-12-02T22:25:42.949Z,9.90
2018-12-02T22:28:13.224Z,9.92
2018-12-02T22:30:43.479Z,9.94
2018-12-02T22:33:13.713Z,9.97
2018-12-02T22:35:44.069Z,9.99
2018-12-02T22:38:14.300Z,10.01
2018-12-02T22:40:44.571Z,10.02
2018-12-02T22:43:14.823Z,10.02
2018-12-02T22:45:45.138Z,10.02
2018-12-02T22:48:15.443Z,10.03
2018-12-02T22:50:45.727Z,10.04
2018-12-02T22:53:16.103Z,10.06
2018-12-02T22:55:46.464Z,10.06
2018-12-02T22:58:16.794Z,10.04
2018-12-02T23:00:52.636Z,10.01
2018-12-02T23:03:22.907Z,10.00
2018-12-02T23:05:53.218Z,10.00
2018-12-02T23:08:23.482Z,9.99
2018-12-02T23:10:53.823Z,9.99
2018-12-02T23:13:24.111Z,9.97
2018-12-02T23:15:54.381Z,9.95
2018-12-02T23:18:24.701Z,9.93
2018-12-02T23:20:55.102Z,9.93
2018-12-02T23:23:25.336Z,9.95
2018-12-02T23:25:55.661Z,9.97
2018-12-02T23:28:25.919Z,9.98
2018-12-02T23:30:56.185Z,9.99
2018-12-02T23:33:26.471Z,10.00
2018-12-02T23:35:56.886Z,10.02
2018-12-02T23:38:27.651Z,10.05
2018-12-02T23:40:58.039Z,10.05
2018-12-02T23:43:28.336Z,10.09
2018-12-02T23:45:58.687Z,10.10
2018-12-02T23:48:29.196Z,10.12
2018-12-02T23:50:59.521Z,10.13
2018-12-02T23:53:29.946Z,10.12
2018-12-02T23:56:00.304Z,10.14
2018-12-02T23:58:30.593Z,10.14
